createdAt,value
2023-05-14T00:01:38.235Z,15.40
2023-05-14T00:04:07.641Z,14.80
2023-05-14T00:06:36.753Z,11.70
2023-05-14T00:09:06.642Z,11.50
2023-05-14T00:11:35.805Z,12.40
2023-05-14T00:14:05.066Z,11.60
2023-05-14T00:16:34.182Z,14.20
2023-05-14T00:19:03.379Z,14.00
2023-05-14T00:21:32.609Z,14.40
2023-05-14T00:24:01.740Z,11.40
2023-05-14T00:26:30.620Z,11.60
2023-05-14T00:28:59.830Z,10.70
2023-05-14T00:31:28.990Z,12.50
2023-05-14T00:33:58.696Z,11.20
2023-05-14T00:36:27.799Z,11.10
2023-05-14T00:38:56.944Z,9.80
2023-05-14T00:41:26.079Z,8.10
2023-05-14T00:43:55.227Z,9.60
2023-05-14T00:46:24.514Z,8.60
2023-05-14T00:48:54.373Z,9.30
2023-05-14T00:51:23.845Z,11.70
2023-05-14T00:53:54.341Z,10.60
2023-05-14T00:56:24.041Z,10.00
2023-05-14T00:58:53.402Z,10.70
2023-05-14T01:01:22.454Z,9.80
2023-05-14T01:03:53.707Z,7.60
2023-05-14T01:06:34.279Z,9.10
2023-05-14T01:09:19.470Z,10.30
2023-05-14T01:12:12.524Z,10.20
2023-05-14T01:15:12.822Z,8.80
2023-05-14T01:18:14.062Z,10.70
2023-05-14T01:20:44.740Z,9.60
2023-05-14T01:23:13.941Z,12.00
2023-05-14T01:25:43.284Z,9.70
2023-05-14T01:28:21.352Z,9.80
2023-05-14T01:31:07.260Z,11.00
2023-05-14T01:33:37.468Z,11.50
2023-05-14T01:36:07.304Z,10.70
2023-05-14T01:38:38.015Z,16.70
2023-05-14T01:41:07.876Z,13.20
2023-05-14T01:43:38.287Z,17.90
2023-05-14T01:46:07.414Z,12.50
2023-05-14T01:48:37.993Z,12.60
2023-05-14T01:51:07.185Z,17.10
2023-05-14T01:53:36.477Z,14.00
2023-05-14T01:56:05.972Z,16.00
2023-05-14T01:58:35.266Z,16.90
2023-05-14T02:01:04.448Z,15.20
2023-05-14T02:03:33.681Z,16.40
2023-05-14T02:06:02.922Z,15.00
2023-05-14T02:08:32.497Z,15.70
2023-05-14T02:11:01.905Z,14.80
2023-05-14T02:13:31.331Z,19.30
2023-05-14T02:16:00.656Z,18.40
2023-05-14T02:18:30.057Z,16.80
2023-05-14T02:20:59.320Z,18.80
2023-05-14T02:23:40.416Z,17.60
2023-05-14T02:26:11.575Z,16.90
2023-05-14T02:28:40.412Z,17.30
2023-05-14T02:31:09.734Z,17.10
2023-05-14T02:33:39.059Z,18.60
2023-05-14T02:36:08.735Z,18.40
2023-05-14T02:38:38.254Z,16.80
2023-05-14T02:41:07.355Z,15.80
2023-05-14T02:43:36.658Z,14.90
2023-05-14T02:46:05.827Z,14.40
2023-05-14T02:48:35.220Z,17.40
2023-05-14T02:51:04.866Z,18.00
2023-05-14T02:53:34.132Z,14.30
2023-05-14T02:56:03.716Z,17.10
2023-05-14T02:58:33.070Z,13.60
2023-05-14T03:01:02.311Z,14.10
2023-05-14T03:03:32.212Z,17.10
2023-05-14T03:06:02.156Z,12.40
2023-05-14T03:08:31.562Z,13.10
2023-05-14T03:11:00.839Z,11.50
2023-05-14T03:13:30.504Z,11.90
2023-05-14T03:15:59.771Z,11.60
2023-05-14T03:18:31.111Z,14.30
2023-05-14T03:21:01.145Z,15.30
2023-05-14T03:23:32.191Z,14.10
2023-05-14T03:26:02.430Z,13.80
2023-05-14T03:28:31.526Z,15.20
2023-05-14T03:31:02.262Z,15.70
2023-05-14T03:33:32.587Z,23.10
2023-05-14T03:36:01.690Z,18.90
2023-05-14T03:38:30.705Z,16.70
2023-05-14T03:41:00.071Z,17.10
2023-05-14T03:43:29.127Z,19.40
2023-05-14T03:45:58.550Z,14.70
2023-05-14T03:48:27.879Z,15.30
2023-05-14T03:50:57.371Z,14.60
2023-05-14T03:53:26.880Z,17.00
2023-05-14T03:55:57.101Z,13.80
2023-05-14T03:58:26.397Z,15.80
2023-05-14T04:00:55.717Z,13.40
2023-05-14T04:03:24.959Z,13.80
2023-05-14T04:05:55.330Z,17.20
2023-05-14T04:08:24.482Z,14.50
2023-05-14T04:10:53.610Z,16.50
2023-05-14T04:13:25.847Z,18.90
2023-05-14T04:15:55.015Z,17.80
2023-05-14T04:18:24.773Z,14.80
2023-05-14T04:20:54.621Z,18.20
2023-05-14T04:23:23.915Z,16.20
2023-05-14T04:25:53.031Z,16.30
2023-05-14T04:28:22.230Z,17.40
2023-05-14T04:30:51.348Z,20.80
2023-05-14T04:33:21.015Z,18.80
2023-05-14T04:35:50.145Z,13.80
2023-05-14T04:38:20.113Z,16.80
2023-05-14T04:40:49.391Z,15.30
2023-05-14T04:43:18.941Z,16.20
2023-05-14T04:45:48.327Z,14.30
2023-05-14T04:48:17.508Z,15.70
2023-05-14T04:50:46.837Z,13.20
2023-05-14T04:53:16.278Z,14.10
2023-05-14T04:55:45.579Z,16.10
2023-05-14T04:58:14.494Z,15.90
2023-05-14T05:00:43.924Z,13.90
2023-05-14T05:03:13.249Z,12.80
2023-05-14T05:05:42.448Z,12.80
2023-05-14T05:08:11.685Z,11.30
2023-05-14T05:10:40.763Z,12.20
2023-05-14T05:13:09.836Z,15.80
2023-05-14T05:15:38.976Z,12.90
2023-05-14T05:18:08.151Z,13.20
2023-05-14T05:20:37.382Z,13.20
2023-05-14T05:23:06.334Z,12.60
2023-05-14T05:25:35.330Z,10.90
2023-05-14T05:28:04.520Z,13.60
2023-05-14T05:30:33.473Z,12.40
2023-05-14T05:33:02.746Z,11.00
2023-05-14T05:35:31.725Z,12.10
2023-05-14T05:38:01.688Z,12.50
2023-05-14T05:40:30.981Z,11.00
2023-05-14T05:42:59.893Z,10.90
2023-05-14T05:45:29.055Z,9.90
2023-05-14T05:47:58.196Z,10.90
2023-05-14T05:50:27.432Z,15.90
2023-05-14T05:52:56.466Z,12.20
2023-05-14T05:55:26.289Z,13.00
2023-05-14T05:57:55.398Z,11.90
2023-05-14T06:00:24.895Z,11.60
2023-05-14T06:02:54.718Z,13.40
2023-05-14T06:05:24.057Z,11.10
2023-05-14T06:07:56.158Z,10.60
2023-05-14T06:10:25.270Z,9.70
2023-05-14T06:12:54.891Z,12.00
2023-05-14T06:15:23.942Z,10.80
2023-05-14T06:17:53.042Z,10.30
2023-05-14T06:20:22.222Z,10.20
2023-05-14T06:22:51.284Z,8.90
2023-05-14T06:25:20.582Z,10.50
2023-05-14T06:27:49.797Z,11.30
2023-05-14T06:30:18.925Z,9.20
2023-05-14T06:32:48.183Z,6.70
2023-05-14T06:35:17.208Z,6.30
2023-05-14T06:37:46.348Z,7.10
2023-05-14T06:40:18.225Z,8.70
2023-05-14T06:42:47.207Z,7.40
2023-05-14T06:45:16.233Z,6.90
2023-05-14T06:47:45.279Z,6.60
2023-05-14T06:50:14.418Z,7.30
2023-05-14T06:52:45.111Z,6.60
2023-05-14T06:55:14.484Z,9.20
2023-05-14T06:57:43.883Z,8.90
2023-05-14T07:00:14.571Z,6.40
2023-05-14T07:02:43.542Z,7.30
2023-05-14T07:05:13.714Z,10.60
2023-05-14T07:07:42.701Z,7.50
2023-05-14T07:10:12.161Z,7.30
2023-05-14T07:12:41.128Z,7.10
2023-05-14T07:15:10.638Z,6.60
2023-05-14T07:17:39.832Z,7.40
2023-05-14T07:20:09.894Z,6.90
2023-05-14T07:22:38.976Z,6.00
2023-05-14T07:25:08.492Z,5.60
2023-05-14T07:27:37.161Z,8.20
2023-05-14T07:30:07.633Z,7.60
2023-05-14T07:32:36.532Z,9.80
2023-05-14T07:35:06.421Z,7.10
2023-05-14T07:37:35.424Z,6.10
2023-05-14T07:40:05.064Z,8.20
2023-05-14T07:42:36.951Z,5.00
2023-05-14T07:45:07.253Z,4.50
2023-05-14T07:47:36.618Z,5.60
2023-05-14T07:50:06.580Z,9.80
2023-05-14T07:52:36.038Z,6.30
2023-05-14T07:55:05.311Z,5.20
2023-05-14T07:57:34.401Z,5.80
2023-05-14T08:00:04.991Z,4.80
2023-05-14T08:02:41.187Z,6.10
2023-05-14T08:05:10.710Z,5.60
2023-05-14T08:07:39.768Z,5.30
2023-05-14T08:10:09.606Z,6.10
2023-05-14T08:12:39.257Z,4.80
2023-05-14T08:15:09.694Z,5.20
2023-05-14T08:17:38.585Z,6.80
2023-05-14T08:20:10.347Z,5.90
2023-05-14T08:22:39.545Z,4.30
2023-05-14T08:25:08.832Z,5.30
2023-05-14T08:27:37.830Z,7.80
2023-05-14T08:30:07.751Z,4.50
2023-05-14T08:32:38.806Z,6.50
2023-05-14T08:35:08.597Z,5.90
2023-05-14T08:37:37.677Z,7.10
2023-05-14T08:40:08.854Z,4.20
2023-05-14T08:42:43.386Z,3.80
2023-05-14T08:45:19.966Z,3.70
2023-05-14T08:47:51.697Z,4.80
2023-05-14T08:50:22.977Z,4.20
2023-05-14T08:52:53.577Z,5.50
2023-05-14T08:55:22.913Z,6.10
2023-05-14T08:57:51.895Z,5.20
2023-05-14T09:00:21.473Z,5.20
2023-05-14T09:02:51.909Z,4.90
2023-05-14T09:05:22.441Z,5.60
2023-05-14T09:07:51.396Z,4.90
2023-05-14T09:10:22.833Z,5.40
2023-05-14T09:12:52.156Z,5.80
2023-05-14T09:15:21.388Z,4.80
2023-05-14T09:17:50.795Z,3.50
2023-05-14T09:20:20.245Z,5.30
2023-05-14T09:22:54.732Z,4.00
2023-05-14T09:25:28.697Z,4.10
2023-05-14T09:27:59.032Z,6.90
2023-05-14T09:30:28.486Z,4.90
2023-05-14T09:32:57.885Z,5.10
2023-05-14T09:35:26.822Z,5.30
2023-05-14T09:37:56.004Z,2.90
2023-05-14T09:40:25.259Z,5.50
2023-05-14T09:42:55.333Z,4.40
2023-05-14T09:45:24.690Z,5.90
2023-05-14T09:47:54.212Z,5.90
2023-05-14T09:50:23.617Z,6.50
2023-05-14T09:52:55.837Z,5.40
2023-05-14T09:55:26.533Z,4.70
2023-05-14T09:57:55.684Z,4.80
2023-05-14T10:00:25.252Z,5.20
2023-05-14T10:02:55.397Z,5.00
2023-05-14T10:05:25.177Z,4.70
2023-05-14T10:07:59.354Z,5.00
2023-05-14T10:10:30.663Z,5.40
2023-05-14T10:13:08.131Z,5.00
2023-05-14T10:15:47.460Z,5.20
2023-05-14T10:18:24.926Z,5.80
2023-05-14T10:21:04.775Z,5.00
2023-05-14T10:23:38.155Z,6.40
2023-05-14T10:26:08.785Z,3.90
2023-05-14T10:28:38.047Z,5.20
2023-05-14T10:31:10.960Z,7.30
2023-05-14T10:33:51.298Z,8.00
2023-05-14T10:36:21.114Z,7.00
2023-05-14T10:38:57.369Z,6.70
2023-05-14T10:41:27.045Z,4.90
2023-05-14T10:43:58.234Z,4.10
2023-05-14T10:46:27.688Z,5.30
2023-05-14T10:48:57.350Z,4.70
2023-05-14T10:51:26.911Z,5.90
2023-05-14T10:53:57.180Z,4.60
2023-05-14T10:56:26.389Z,4.60
2023-05-14T10:59:00.500Z,5.60
2023-05-14T11:01:29.599Z,6.30
2023-05-14T11:03:59.044Z,7.90
2023-05-14T11:06:28.532Z,7.70
2023-05-14T11:08:59.268Z,5.80
2023-05-14T11:11:28.924Z,8.20
2023-05-14T11:13:58.529Z,4.70
2023-05-14T11:16:30.985Z,5.20
2023-05-14T11:19:07.712Z,4.30
2023-05-14T11:21:37.275Z,4.70
2023-05-14T11:24:07.583Z,7.20
2023-05-14T11:26:36.798Z,4.20
2023-05-14T11:29:05.856Z,4.70
2023-05-14T11:31:35.995Z,5.20
2023-05-14T11:34:10.638Z,4.40
2023-05-14T11:36:40.200Z,3.50
2023-05-14T11:39:10.181Z,5.30
2023-05-14T11:41:46.216Z,5.40
2023-05-14T11:44:15.298Z,6.90
2023-05-14T11:46:55.811Z,4.60
2023-05-14T11:49:26.140Z,4.90
2023-05-14T11:52:00.529Z,5.20
2023-05-14T11:54:30.808Z,3.70
2023-05-14T11:57:16.534Z,4.20
2023-05-14T11:59:46.152Z,4.00
2023-05-14T12:02:19.963Z,5.50
2023-05-14T12:04:54.053Z,8.80
2023-05-14T12:07:23.083Z,5.20
2023-05-14T12:09:52.094Z,3.40
2023-05-14T12:12:23.502Z,3.60
2023-05-14T12:14:53.468Z,7.10
2023-05-14T12:17:24.270Z,3.90
2023-05-14T12:19:53.598Z,4.30
2023-05-14T12:22:23.680Z,5.00
2023-05-14T12:24:58.656Z,4.10
2023-05-14T12:27:29.930Z,4.10
2023-05-14T12:32:41.820Z,2.90
2023-05-14T12:35:11.135Z,5.40
2023-05-14T12:37:40.811Z,5.00
2023-05-14T12:40:10.551Z,3.60
2023-05-14T12:42:39.551Z,3.70
2023-05-14T12:45:09.269Z,5.40
2023-05-14T12:47:38.551Z,2.90
2023-05-14T12:50:08.669Z,3.40
2023-05-14T12:52:39.729Z,5.50
2023-05-14T12:55:10.261Z,5.00
2023-05-14T12:57:39.853Z,5.30
2023-05-14T13:00:13.897Z,3.60
2023-05-14T13:02:44.147Z,4.00
2023-05-14T13:05:13.493Z,2.40
2023-05-14T13:07:42.797Z,5.40
2023-05-14T13:10:12.226Z,8.20
2023-05-14T13:12:42.113Z,3.30
2023-05-14T13:15:12.347Z,4.70
2023-05-14T13:17:41.815Z,4.80
2023-05-14T13:20:11.553Z,8.70
2023-05-14T13:22:40.919Z,4.00
2023-05-14T13:25:10.965Z,4.80
2023-05-14T13:27:39.911Z,4.80
2023-05-14T13:30:09.656Z,3.60
2023-05-14T13:32:40.746Z,4.20
2023-05-14T13:35:12.041Z,3.20
2023-05-14T13:37:43.479Z,2.30
2023-05-14T13:40:13.315Z,3.20
2023-05-14T13:42:43.106Z,3.70
2023-05-14T13:45:13.403Z,2.90
2023-05-14T13:47:42.624Z,3.30
2023-05-14T13:50:11.854Z,4.80
2023-05-14T13:52:40.934Z,4.80
2023-05-14T13:55:10.383Z,2.70
2023-05-14T13:57:41.918Z,3.10
2023-05-14T14:00:12.024Z,3.30
2023-05-14T14:02:41.315Z,3.20
2023-05-14T14:05:10.661Z,4.20
2023-05-14T14:07:40.897Z,3.40
2023-05-14T14:10:10.704Z,3.10
2023-05-14T14:12:39.778Z,2.70
2023-05-14T14:15:09.357Z,3.80
2023-05-14T14:17:39.579Z,3.50
2023-05-14T14:20:10.726Z,3.30
2023-05-14T14:22:43.428Z,5.40
2023-05-14T14:25:13.653Z,4.70
2023-05-14T14:27:42.685Z,4.20
2023-05-14T14:30:15.848Z,3.00
2023-05-14T14:32:46.494Z,3.20
2023-05-14T14:35:18.747Z,3.70
2023-05-14T14:37:53.569Z,4.30
2023-05-14T14:40:24.236Z,3.40
2023-05-14T14:42:53.646Z,2.60
2023-05-14T14:45:23.603Z,2.20
2023-05-14T14:48:12.808Z,3.20
2023-05-14T14:50:41.979Z,2.70
2023-05-14T14:53:11.149Z,5.00
2023-05-14T14:55:40.596Z,5.00
2023-05-14T14:58:10.002Z,5.50
2023-05-14T15:00:40.510Z,5.80
2023-05-14T15:03:10.653Z,4.50
2023-05-14T15:05:40.156Z,2.90
2023-05-14T15:08:09.501Z,2.70
2023-05-14T15:10:39.185Z,2.80
2023-05-14T15:13:09.419Z,2.50
2023-05-14T15:15:38.810Z,4.40
2023-05-14T15:18:07.875Z,3.80
2023-05-14T15:20:37.594Z,6.00
2023-05-14T15:23:07.045Z,2.50
2023-05-14T15:25:36.785Z,2.30
2023-05-14T15:28:09.168Z,4.00
2023-05-14T15:30:38.486Z,5.60
2023-05-14T15:33:11.037Z,6.60
2023-05-14T15:35:40.473Z,5.10
2023-05-14T15:38:09.794Z,3.30
2023-05-14T15:40:38.720Z,4.70
2023-05-14T15:43:08.273Z,5.20
2023-05-14T15:45:37.297Z,5.90
2023-05-14T15:48:07.139Z,3.10
2023-05-14T15:50:36.438Z,4.60
2023-05-14T15:53:05.940Z,2.40
2023-05-14T15:55:35.570Z,3.20
2023-05-14T15:58:04.791Z,4.40
2023-05-14T16:00:35.490Z,2.60
2023-05-14T16:03:05.523Z,4.90
2023-05-14T16:05:34.858Z,4.00
2023-05-14T16:08:04.111Z,3.60
2023-05-14T16:10:33.234Z,2.90
2023-05-14T16:13:02.468Z,5.40
2023-05-14T16:15:31.831Z,4.50
2023-05-14T16:18:01.493Z,4.80
2023-05-14T16:20:30.945Z,4.60
2023-05-14T16:23:00.286Z,3.20
2023-05-14T16:25:31.662Z,3.50
2023-05-14T16:28:01.633Z,4.40
2023-05-14T16:30:30.827Z,3.70
2023-05-14T16:33:00.558Z,4.50
2023-05-14T16:35:30.068Z,4.20
2023-05-14T16:38:00.180Z,4.60
2023-05-14T16:40:29.701Z,4.10
2023-05-14T16:42:59.164Z,4.80
2023-05-14T16:45:28.645Z,4.10
2023-05-14T16:47:57.982Z,3.60
2023-05-14T16:50:28.588Z,4.40
2023-05-14T16:52:58.055Z,4.70
2023-05-14T16:55:27.520Z,5.70
2023-05-14T16:57:56.801Z,7.60
2023-05-14T17:00:26.700Z,10.30
2023-05-14T17:02:56.279Z,5.80
2023-05-14T17:05:25.979Z,8.30
2023-05-14T17:07:55.787Z,6.70
2023-05-14T17:10:26.795Z,3.70
2023-05-14T17:12:56.121Z,6.10
2023-05-14T17:15:42.886Z,5.10
2023-05-14T17:18:12.250Z,2.90
2023-05-14T17:20:41.497Z,5.20
2023-05-14T17:23:10.717Z,4.40
2023-05-14T17:25:40.229Z,4.80
2023-05-14T17:28:09.393Z,8.70
2023-05-14T17:30:38.587Z,4.50
2023-05-14T17:33:08.396Z,3.90
2023-05-14T17:35:37.787Z,6.70
2023-05-14T17:38:07.366Z,8.90
2023-05-14T17:40:36.772Z,6.60
2023-05-14T17:43:06.456Z,8.40
2023-05-14T17:45:46.332Z,5.90
2023-05-14T17:48:24.302Z,4.80
2023-05-14T17:50:53.870Z,5.80
2023-05-14T17:53:23.050Z,4.50
2023-05-14T17:55:52.197Z,4.90
2023-05-14T17:58:21.599Z,4.20
2023-05-14T18:00:51.369Z,8.00
2023-05-14T18:03:21.448Z,9.40
2023-05-14T18:05:51.693Z,5.50
2023-05-14T18:08:20.719Z,6.70
2023-05-14T18:10:49.792Z,4.30
2023-05-14T18:13:19.133Z,6.70
2023-05-14T18:15:48.833Z,8.20
2023-05-14T18:18:19.005Z,6.20
2023-05-14T18:20:49.706Z,7.50
2023-05-14T18:23:20.102Z,6.80
2023-05-14T18:25:49.610Z,6.40
2023-05-14T18:28:19.445Z,6.90
2023-05-14T18:30:49.970Z,4.80
2023-05-14T18:33:19.083Z,5.50
2023-05-14T18:35:48.291Z,6.90
2023-05-14T18:38:19.864Z,6.70
2023-05-14T18:40:49.715Z,3.80
2023-05-14T18:43:20.221Z,5.70
2023-05-14T18:45:49.994Z,5.10
2023-05-14T18:48:19.701Z,8.20
2023-05-14T18:50:49.395Z,4.80
2023-05-14T18:53:18.852Z,6.40
2023-05-14T18:55:49.387Z,5.10
2023-05-14T18:58:18.698Z,5.00
2023-05-14T19:00:48.004Z,4.20
2023-05-14T19:03:17.834Z,3.70
2023-05-14T19:05:47.429Z,4.40
2023-05-14T19:08:17.148Z,4.50
2023-05-14T19:10:46.705Z,4.50
2023-05-14T19:13:18.822Z,4.20
2023-05-14T19:15:48.186Z,4.80
2023-05-14T19:18:17.977Z,4.50
2023-05-14T19:20:47.206Z,4.30
2023-05-14T19:23:16.413Z,5.90
2023-05-14T19:25:45.591Z,6.20
2023-05-14T19:28:15.738Z,4.90
2023-05-14T19:30:44.895Z,5.40
2023-05-14T19:33:13.961Z,5.50
2023-05-14T19:35:43.311Z,5.40
2023-05-14T19:38:12.301Z,7.20
2023-05-14T19:40:43.653Z,4.60
2023-05-14T19:43:14.166Z,6.70
2023-05-14T19:45:43.544Z,6.90
2023-05-14T19:48:13.943Z,5.60
2023-05-14T19:50:43.393Z,9.80
2023-05-14T19:53:12.385Z,6.20
2023-05-14T19:55:41.911Z,6.80
2023-05-14T19:58:11.430Z,5.40
2023-05-14T20:00:40.240Z,6.20
2023-05-14T20:03:10.604Z,6.10
2023-05-14T20:05:40.053Z,6.80
2023-05-14T20:08:09.610Z,5.90
2023-05-14T20:10:39.246Z,5.50
2023-05-14T20:13:08.880Z,8.50
2023-05-14T20:15:39.524Z,7.30
2023-05-14T20:18:09.097Z,6.90
2023-05-14T20:20:39.792Z,7.00
2023-05-14T20:23:09.633Z,5.00
2023-05-14T20:25:38.645Z,5.20
2023-05-14T20:28:07.832Z,5.30
2023-05-14T20:30:37.563Z,6.40
2023-05-14T20:33:07.064Z,4.80
2023-05-14T20:35:36.355Z,8.00
2023-05-14T20:38:05.532Z,8.50
2023-05-14T20:40:34.744Z,5.50
2023-05-14T20:43:03.943Z,6.40
2023-05-14T20:45:33.347Z,6.10
2023-05-14T20:48:02.659Z,4.90
2023-05-14T20:50:31.892Z,4.20
2023-05-14T20:53:01.285Z,4.30
2023-05-14T20:55:30.614Z,5.40
2023-05-14T20:57:59.738Z,5.30
2023-05-14T21:00:29.076Z,6.90
2023-05-14T21:02:59.871Z,5.20
2023-05-14T21:05:29.668Z,5.00
2023-05-14T21:07:58.940Z,3.80
2023-05-14T21:10:28.236Z,4.90
2023-05-14T21:12:57.690Z,5.30
2023-05-14T21:15:27.620Z,4.70
2023-05-14T21:17:56.902Z,9.90
2023-05-14T21:20:26.454Z,4.60
2023-05-14T21:22:55.952Z,4.70
2023-05-14T21:25:25.578Z,7.10
2023-05-14T21:27:54.999Z,7.00
2023-05-14T21:30:24.060Z,5.20
2023-05-14T21:32:53.650Z,7.00
2023-05-14T21:35:23.316Z,7.90
2023-05-14T21:37:52.875Z,6.20
2023-05-14T21:40:22.061Z,6.70
2023-05-14T21:42:51.343Z,5.40
2023-05-14T21:45:22.863Z,6.10
2023-05-14T21:47:52.968Z,6.50
2023-05-14T21:50:22.472Z,6.10
2023-05-14T21:52:51.747Z,5.40
2023-05-14T21:55:20.855Z,5.60
2023-05-14T21:57:50.267Z,5.90
2023-05-14T22:00:23.603Z,5.40
2023-05-14T22:02:53.775Z,5.60
2023-05-14T22:05:23.365Z,4.90
2023-05-14T22:07:52.971Z,9.20
2023-05-14T22:10:22.259Z,4.50
2023-05-14T22:12:51.373Z,5.30
2023-05-14T22:15:20.549Z,5.30
2023-05-14T22:17:50.107Z,4.10
2023-05-14T22:20:19.641Z,3.40
2023-05-14T22:22:48.976Z,5.70
2023-05-14T22:25:18.638Z,5.60
2023-05-14T22:27:48.003Z,4.80
2023-05-14T22:30:17.167Z,4.50
2023-05-14T22:32:46.363Z,5.10
2023-05-14T22:35:15.923Z,5.20
2023-05-14T22:37:45.097Z,5.50
2023-05-14T22:40:14.922Z,4.30
2023-05-14T22:42:44.097Z,4.60
2023-05-14T22:45:13.363Z,5.10
2023-05-14T22:47:42.651Z,5.50
2023-05-14T22:50:12.013Z,4.60
2023-05-14T22:52:41.978Z,5.40
2023-05-14T22:55:11.721Z,4.40
2023-05-14T22:57:41.163Z,4.80
2023-05-14T23:00:11.714Z,4.40
2023-05-14T23:02:40.931Z,4.30
2023-05-14T23:05:10.328Z,5.00
2023-05-14T23:07:39.982Z,4.60
2023-05-14T23:10:09.800Z,5.60
2023-05-14T23:12:39.210Z,4.30
2023-05-14T23:15:08.898Z,4.40
2023-05-14T23:17:39.295Z,4.30
2023-05-14T23:20:13.484Z,5.80
2023-05-14T23:22:42.647Z,4.30
2023-05-14T23:25:11.742Z,4.80
2023-05-14T23:27:41.482Z,5.10
2023-05-14T23:30:11.386Z,4.50
2023-05-14T23:32:40.613Z,6.20
2023-05-14T23:35:10.996Z,6.40
2023-05-14T23:37:47.489Z,5.30
2023-05-14T23:40:17.430Z,4.20
2023-05-14T23:42:46.785Z,4.20
2023-05-14T23:45:16.096Z,5.90
2023-05-14T23:47:45.449Z,3.70
2023-05-14T23:50:14.444Z,3.90
2023-05-14T23:52:43.988Z,3.70
2023-05-14T23:55:13.808Z,5.60
2023-05-14T23:57:42.892Z,4.50
